sensor_id;sensor_type;location;lat;lon;timestamp;P1;durP1;ratioP1;P2;durP2;ratioP2
40459;SDS011;26164;51.138;16.952;2023-08-20T00:02:23;20.60;;;17.52;;
40459;SDS011;26164;51.138;16.952;2023-08-20T00:04:49;19.38;;;15.48;;
40459;SDS011;26164;51.138;16.952;2023-08-20T00:07:15;21.38;;;16.15;;
40459;SDS011;26164;51.138;16.952;2023-08-20T00:09:44;19.25;;;15.88;;
40459;SDS011;26164;51.138;16.952;2023-08-20T00:12:09;21.23;;;16.77;;
40459;SDS011;26164;51.138;16.952;2023-08-20T00:17:21;22.48;;;17.10;;
40459;SDS011;26164;51.138;16.952;2023-08-20T00:19:47;23.05;;;16.75;;
40459;SDS011;26164;51.138;16.952;2023-08-20T00:22:13;22.75;;;16.50;;
40459;SDS011;26164;51.138;16.952;2023-08-20T00:24:39;24.23;;;16.15;;
40459;SDS011;26164;51.138;16.952;2023-08-20T00:27:04;20.60;;;17.23;;
40459;SDS011;26164;51.138;16.952;2023-08-20T00:29:30;18.52;;;14.80;;
40459;SDS011;26164;51.138;16.952;2023-08-20T00:31:56;16.30;;;13.65;;
40459;SDS011;26164;51.138;16.952;2023-08-20T00:34:21;21.80;;;16.08;;
40459;SDS011;26164;51.138;16.952;2023-08-20T00:36:47;21.52;;;16.63;;
40459;SDS011;26164;51.138;16.952;2023-08-20T00:39:13;20.15;;;15.63;;
40459;SDS011;26164;51.138;16.952;2023-08-20T00:41:41;22.48;;;16.42;;
40459;SDS011;26164;51.138;16.952;2023-08-20T00:44:07;18.88;;;16.25;;
40459;SDS011;26164;51.138;16.952;2023-08-20T00:46:32;18.33;;;15.65;;
40459;SDS011;26164;51.138;16.952;2023-08-20T00:48:58;22.50;;;17.52;;
40459;SDS011;26164;51.138;16.952;2023-08-20T00:51:24;24.58;;;17.48;;
40459;SDS011;26164;51.138;16.952;2023-08-20T00:53:50;24.88;;;17.33;;
40459;SDS011;26164;51.138;16.952;2023-08-20T00:56:15;23.45;;;18.00;;
40459;SDS011;26164;51.138;16.952;2023-08-20T00:58:41;21.35;;;16.63;;
40459;SDS011;26164;51.138;16.952;2023-08-20T01:01:07;22.02;;;17.25;;
40459;SDS011;26164;51.138;16.952;2023-08-20T01:03:33;23.02;;;18.77;;
40459;SDS011;26164;51.138;16.952;2023-08-20T01:06:03;25.95;;;19.98;;
40459;SDS011;26164;51.138;16.952;2023-08-20T01:08:38;24.55;;;18.52;;
40459;SDS011;26164;51.138;16.952;2023-08-20T01:11:10;25.52;;;19.30;;
40459;SDS011;26164;51.138;16.952;2023-08-20T01:13:38;24.30;;;18.15;;
40459;SDS011;26164;51.138;16.952;2023-08-20T01:16:04;26.67;;;19.33;;
40459;SDS011;26164;51.138;16.952;2023-08-20T01:18:31;25.48;;;18.50;;
40459;SDS011;26164;51.138;16.952;2023-08-20T01:20:58;25.10;;;18.02;;
40459;SDS011;26164;51.138;16.952;2023-08-20T01:23:29;24.90;;;18.08;;
40459;SDS011;26164;51.138;16.952;2023-08-20T01:28:44;31.17;;;21.13;;
40459;SDS011;26164;51.138;16.952;2023-08-20T01:31:10;26.25;;;21.08;;
40459;SDS011;26164;51.138;16.952;2023-08-20T01:33:36;28.27;;;22.08;;
40459;SDS011;26164;51.138;16.952;2023-08-20T01:36:02;30.63;;;23.33;;
40459;SDS011;26164;51.138;16.952;2023-08-20T01:38:28;26.05;;;21.23;;
40459;SDS011;26164;51.138;16.952;2023-08-20T01:40:54;26.27;;;20.38;;
40459;SDS011;26164;51.138;16.952;2023-08-20T01:43:21;26.85;;;20.45;;
40459;SDS011;26164;51.138;16.952;2023-08-20T01:45:47;27.65;;;20.90;;
40459;SDS011;26164;51.138;16.952;2023-08-20T01:48:14;24.55;;;20.17;;
40459;SDS011;26164;51.138;16.952;2023-08-20T01:50:40;29.42;;;20.45;;
40459;SDS011;26164;51.138;16.952;2023-08-20T01:53:06;24.65;;;19.55;;
40459;SDS011;26164;51.138;16.952;2023-08-20T01:55:32;29.40;;;19.88;;
40459;SDS011;26164;51.138;16.952;2023-08-20T01:57:58;28.25;;;21.30;;
40459;SDS011;26164;51.138;16.952;2023-08-20T02:00:24;27.98;;;21.15;;
40459;SDS011;26164;51.138;16.952;2023-08-20T02:02:50;28.60;;;21.33;;
40459;SDS011;26164;51.138;16.952;2023-08-20T02:05:16;27.15;;;20.23;;
40459;SDS011;26164;51.138;16.952;2023-08-20T02:07:42;27.48;;;20.40;;
40459;SDS011;26164;51.138;16.952;2023-08-20T02:10:07;28.63;;;21.00;;
40459;SDS011;26164;51.138;16.952;2023-08-20T02:12:34;27.67;;;20.10;;
40459;SDS011;26164;51.138;16.952;2023-08-20T02:14:59;28.77;;;21.42;;
40459;SDS011;26164;51.138;16.952;2023-08-20T02:17:25;26.77;;;20.58;;
40459;SDS011;26164;51.138;16.952;2023-08-20T02:19:52;30.20;;;21.42;;
40459;SDS011;26164;51.138;16.952;2023-08-20T02:22:18;28.23;;;21.20;;
40459;SDS011;26164;51.138;16.952;2023-08-20T02:24:46;27.35;;;21.48;;
40459;SDS011;26164;51.138;16.952;2023-08-20T02:27:13;27.58;;;22.55;;
40459;SDS011;26164;51.138;16.952;2023-08-20T02:29:39;31.60;;;22.35;;
40459;SDS011;26164;51.138;16.952;2023-08-20T02:32:05;29.77;;;22.55;;
40459;SDS011;26164;51.138;16.952;2023-08-20T02:34:30;25.77;;;20.52;;
40459;SDS011;26164;51.138;16.952;2023-08-20T02:36:56;26.63;;;20.85;;
40459;SDS011;26164;51.138;16.952;2023-08-20T02:39:22;26.48;;;20.58;;
40459;SDS011;26164;51.138;16.952;2023-08-20T02:41:49;26.25;;;20.58;;
40459;SDS011;26164;51.138;16.952;2023-08-20T02:44:15;29.33;;;22.35;;
40459;SDS011;26164;51.138;16.952;2023-08-20T02:46:41;26.13;;;19.77;;
40459;SDS011;26164;51.138;16.952;2023-08-20T02:49:10;26.38;;;20.00;;
40459;SDS011;26164;51.138;16.952;2023-08-20T02:51:35;25.95;;;20.25;;
40459;SDS011;26164;51.138;16.952;2023-08-20T02:54:01;25.33;;;20.63;;
40459;SDS011;26164;51.138;16.952;2023-08-20T02:56:27;24.70;;;20.42;;
40459;SDS011;26164;51.138;16.952;2023-08-20T02:58:52;29.73;;;21.35;;
40459;SDS011;26164;51.138;16.952;2023-08-20T03:01:19;26.60;;;20.65;;
40459;SDS011;26164;51.138;16.952;2023-08-20T03:03:44;24.38;;;19.77;;
40459;SDS011;26164;51.138;16.952;2023-08-20T03:06:10;23.05;;;19.20;;
40459;SDS011;26164;51.138;16.952;2023-08-20T03:08:36;24.63;;;20.40;;
40459;SDS011;26164;51.138;16.952;2023-08-20T03:11:02;24.48;;;20.58;;
40459;SDS011;26164;51.138;16.952;2023-08-20T03:13:28;24.83;;;21.75;;
40459;SDS011;26164;51.138;16.952;2023-08-20T03:15:54;27.08;;;21.75;;
40459;SDS011;26164;51.138;16.952;2023-08-20T03:18:19;28.40;;;22.05;;
40459;SDS011;26164;51.138;16.952;2023-08-20T03:20:45;29.77;;;22.23;;
40459;SDS011;26164;51.138;16.952;2023-08-20T03:23:11;25.08;;;21.15;;
40459;SDS011;26164;51.138;16.952;2023-08-20T03:25:37;26.17;;;20.27;;
40459;SDS011;26164;51.138;16.952;2023-08-20T03:28:03;29.20;;;20.75;;
40459;SDS011;26164;51.138;16.952;2023-08-20T03:30:29;26.83;;;21.65;;
40459;SDS011;26164;51.138;16.952;2023-08-20T03:32:57;25.80;;;21.10;;
40459;SDS011;26164;51.138;16.952;2023-08-20T03:35:23;26.77;;;22.35;;
40459;SDS011;26164;51.138;16.952;2023-08-20T03:37:49;24.15;;;20.75;;
40459;SDS011;26164;51.138;16.952;2023-08-20T03:40:15;31.77;;;23.27;;
40459;SDS011;26164;51.138;16.952;2023-08-20T03:42:41;27.45;;;22.42;;
40459;SDS011;26164;51.138;16.952;2023-08-20T03:45:09;29.08;;;21.75;;
40459;SDS011;26164;51.138;16.952;2023-08-20T03:47:34;29.50;;;21.88;;
40459;SDS011;26164;51.138;16.952;2023-08-20T03:50:00;26.23;;;21.52;;
40459;SDS011;26164;51.138;16.952;2023-08-20T03:52:26;24.52;;;20.40;;
40459;SDS011;26164;51.138;16.952;2023-08-20T03:54:52;28.70;;;23.38;;
40459;SDS011;26164;51.138;16.952;2023-08-20T03:57:18;30.58;;;20.73;;
40459;SDS011;26164;51.138;16.952;2023-08-20T03:59:44;25.40;;;21.38;;
40459;SDS011;26164;51.138;16.952;2023-08-20T04:02:12;25.98;;;20.55;;
40459;SDS011;26164;51.138;16.952;2023-08-20T04:04:39;30.08;;;23.42;;
40459;SDS011;26164;51.138;16.952;2023-08-20T04:07:04;28.48;;;22.63;;
40459;SDS011;26164;51.138;16.952;2023-08-20T04:09:32;26.23;;;20.80;;
40459;SDS011;26164;51.138;16.952;2023-08-20T04:11:58;27.42;;;22.48;;
40459;SDS011;26164;51.138;16.952;2023-08-20T04:14:23;24.77;;;20.13;;
40459;SDS011;26164;51.138;16.952;2023-08-20T04:16:49;28.80;;;21.95;;
40459;SDS011;26164;51.138;16.952;2023-08-20T04:19:15;26.13;;;20.67;;
40459;SDS011;26164;51.138;16.952;2023-08-20T04:21:40;26.00;;;18.15;;
40459;SDS011;26164;51.138;16.952;2023-08-20T04:24:06;25.33;;;19.70;;
40459;SDS011;26164;51.138;16.952;2023-08-20T04:26:32;21.27;;;17.65;;
40459;SDS011;26164;51.138;16.952;2023-08-20T04:28:58;24.45;;;18.10;;
40459;SDS011;26164;51.138;16.952;2023-08-20T04:31:24;20.88;;;17.48;;
40459;SDS011;26164;51.138;16.952;2023-08-20T04:33:59;21.02;;;17.08;;
40459;SDS011;26164;51.138;16.952;2023-08-20T04:36:36;20.50;;;16.52;;
40459;SDS011;26164;51.138;16.952;2023-08-20T04:39:01;22.70;;;16.13;;
40459;SDS011;26164;51.138;16.952;2023-08-20T04:41:28;21.92;;;15.07;;
40459;SDS011;26164;51.138;16.952;2023-08-20T04:43:54;19.65;;;15.23;;
40459;SDS011;26164;51.138;16.952;2023-08-20T04:46:22;18.10;;;15.02;;
40459;SDS011;26164;51.138;16.952;2023-08-20T04:48:47;20.70;;;14.82;;
40459;SDS011;26164;51.138;16.952;2023-08-20T04:51:13;18.77;;;13.38;;
40459;SDS011;26164;51.138;16.952;2023-08-20T04:53:39;18.35;;;13.88;;
40459;SDS011;26164;51.138;16.952;2023-08-20T04:56:05;18.25;;;13.07;;
40459;SDS011;26164;51.138;16.952;2023-08-20T04:58:30;19.15;;;14.10;;
40459;SDS011;26164;51.138;16.952;2023-08-20T05:00:57;19.75;;;13.93;;
40459;SDS011;26164;51.138;16.952;2023-08-20T05:03:23;17.88;;;13.57;;
40459;SDS011;26164;51.138;16.952;2023-08-20T05:05:49;17.60;;;12.35;;
40459;SDS011;26164;51.138;16.952;2023-08-20T05:08:15;18.95;;;13.82;;
40459;SDS011;26164;51.138;16.952;2023-08-20T05:10:42;16.05;;;13.38;;
40459;SDS011;26164;51.138;16.952;2023-08-20T05:13:09;16.17;;;12.60;;
40459;SDS011;26164;51.138;16.952;2023-08-20T05:15:34;17.92;;;12.68;;
40459;SDS011;26164;51.138;16.952;2023-08-20T05:18:00;18.05;;;10.40;;
40459;SDS011;26164;51.138;16.952;2023-08-20T05:20:26;13.48;;;10.93;;
40459;SDS011;26164;51.138;16.952;2023-08-20T05:22:53;15.32;;;11.15;;
40459;SDS011;26164;51.138;16.952;2023-08-20T05:25:19;16.23;;;12.18;;
40459;SDS011;26164;51.138;16.952;2023-08-20T05:27:46;19.75;;;13.38;;
40459;SDS011;26164;51.138;16.952;2023-08-20T05:30:11;16.33;;;13.18;;
40459;SDS011;26164;51.138;16.952;2023-08-20T05:32:38;16.90;;;12.68;;
40459;SDS011;26164;51.138;16.952;2023-08-20T05:35:03;16.38;;;13.73;;
40459;SDS011;26164;51.138;16.952;2023-08-20T05:37:31;19.48;;;14.20;;
40459;SDS011;26164;51.138;16.952;2023-08-20T05:39:56;17.10;;;13.30;;
40459;SDS011;26164;51.138;16.952;2023-08-20T05:42:22;14.82;;;12.27;;
40459;SDS011;26164;51.138;16.952;2023-08-20T05:44:56;16.75;;;11.75;;
40459;SDS011;26164;51.138;16.952;2023-08-20T05:47:26;14.73;;;11.73;;
40459;SDS011;26164;51.138;16.952;2023-08-20T05:49:53;13.93;;;11.45;;
40459;SDS011;26164;51.138;16.952;2023-08-20T05:52:21;15.45;;;11.88;;
40459;SDS011;26164;51.138;16.952;2023-08-20T05:54:47;14.90;;;11.10;;
40459;SDS011;26164;51.138;16.952;2023-08-20T05:57:13;13.90;;;11.18;;
40459;SDS011;26164;51.138;16.952;2023-08-20T05:59:40;14.18;;;11.13;;
40459;SDS011;26164;51.138;16.952;2023-08-20T06:02:06;14.48;;;11.48;;
40459;SDS011;26164;51.138;16.952;2023-08-20T06:04:32;14.18;;;11.07;;
40459;SDS011;26164;51.138;16.952;2023-08-20T06:06:58;12.27;;;10.85;;
40459;SDS011;26164;51.138;16.952;2023-08-20T06:09:24;13.70;;;10.43;;
40459;SDS011;26164;51.138;16.952;2023-08-20T06:11:49;12.57;;;9.73;;
40459;SDS011;26164;51.138;16.952;2023-08-20T06:14:16;11.88;;;10.25;;
40459;SDS011;26164;51.138;16.952;2023-08-20T06:16:42;13.38;;;10.07;;
40459;SDS011;26164;51.138;16.952;2023-08-20T06:19:08;10.52;;;9.20;;
40459;SDS011;26164;51.138;16.952;2023-08-20T06:21:34;13.02;;;10.02;;
40459;SDS011;26164;51.138;16.952;2023-08-20T06:24:00;13.07;;;9.82;;
40459;SDS011;26164;51.138;16.952;2023-08-20T06:26:25;14.80;;;9.75;;
40459;SDS011;26164;51.138;16.952;2023-08-20T06:28:51;13.80;;;9.63;;
40459;SDS011;26164;51.138;16.952;2023-08-20T06:31:17;11.93;;;9.55;;
40459;SDS011;26164;51.138;16.952;2023-08-20T06:33:42;17.52;;;10.50;;
40459;SDS011;26164;51.138;16.952;2023-08-20T06:36:08;10.70;;;8.93;;
40459;SDS011;26164;51.138;16.952;2023-08-20T06:38:34;10.05;;;8.65;;
40459;SDS011;26164;51.138;16.952;2023-08-20T06:40:59;12.57;;;9.05;;
40459;SDS011;26164;51.138;16.952;2023-08-20T06:43:26;12.43;;;8.90;;
40459;SDS011;26164;51.138;16.952;2023-08-20T06:45:52;15.43;;;9.13;;
40459;SDS011;26164;51.138;16.952;2023-08-20T06:48:17;11.73;;;8.73;;
40459;SDS011;26164;51.138;16.952;2023-08-20T06:50:45;10.20;;;8.60;;
40459;SDS011;26164;51.138;16.952;2023-08-20T06:53:10;12.45;;;8.98;;
40459;SDS011;26164;51.138;16.952;2023-08-20T06:55:36;10.70;;;8.35;;
40459;SDS011;26164;51.138;16.952;2023-08-20T06:58:02;10.50;;;8.10;;
40459;SDS011;26164;51.138;16.952;2023-08-20T07:00:28;12.25;;;8.85;;
40459;SDS011;26164;51.138;16.952;2023-08-20T07:02:53;10.27;;;7.50;;
40459;SDS011;26164;51.138;16.952;2023-08-20T07:05:19;11.65;;;8.05;;
40459;SDS011;26164;51.138;16.952;2023-08-20T07:07:46;12.52;;;7.90;;
40459;SDS011;26164;51.138;16.952;2023-08-20T07:10:12;11.18;;;7.95;;
40459;SDS011;26164;51.138;16.952;2023-08-20T07:12:37;11.38;;;8.18;;
40459;SDS011;26164;51.138;16.952;2023-08-20T07:15:04;10.10;;;7.78;;
40459;SDS011;26164;51.138;16.952;2023-08-20T07:17:30;11.20;;;8.13;;
40459;SDS011;26164;51.138;16.952;2023-08-20T07:19:55;10.25;;;7.38;;
40459;SDS011;26164;51.138;16.952;2023-08-20T07:22:21;9.68;;;7.32;;
40459;SDS011;26164;51.138;16.952;2023-08-20T07:24:47;9.02;;;7.20;;
40459;SDS011;26164;51.138;16.952;2023-08-20T07:27:12;9.32;;;7.53;;
40459;SDS011;26164;51.138;16.952;2023-08-20T07:29:38;11.38;;;7.85;;
40459;SDS011;26164;51.138;16.952;2023-08-20T07:32:04;11.30;;;7.05;;
40459;SDS011;26164;51.138;16.952;2023-08-20T07:34:30;10.27;;;7.93;;
40459;SDS011;26164;51.138;16.952;2023-08-20T07:36:59;9.18;;;7.13;;
40459;SDS011;26164;51.138;16.952;2023-08-20T07:39:25;11.20;;;6.80;;
40459;SDS011;26164;51.138;16.952;2023-08-20T07:41:50;11.07;;;7.32;;
40459;SDS011;26164;51.138;16.952;2023-08-20T07:44:16;9.68;;;7.93;;
40459;SDS011;26164;51.138;16.952;2023-08-20T07:46:42;11.48;;;7.82;;
40459;SDS011;26164;51.138;16.952;2023-08-20T07:49:08;10.00;;;7.80;;
40459;SDS011;26164;51.138;16.952;2023-08-20T07:51:33;9.23;;;7.15;;
40459;SDS011;26164;51.138;16.952;2023-08-20T07:53:59;10.38;;;7.22;;
40459;SDS011;26164;51.138;16.952;2023-08-20T07:56:26;9.40;;;7.28;;
40459;SDS011;26164;51.138;16.952;2023-08-20T07:58:52;10.48;;;7.22;;
40459;SDS011;26164;51.138;16.952;2023-08-20T08:01:17;8.80;;;6.80;;
40459;SDS011;26164;51.138;16.952;2023-08-20T08:03:43;9.65;;;6.82;;
40459;SDS011;26164;51.138;16.952;2023-08-20T08:06:09;7.60;;;6.75;;
40459;SDS011;26164;51.138;16.952;2023-08-20T08:08:35;9.45;;;6.63;;
40459;SDS011;26164;51.138;16.952;2023-08-20T08:11:01;8.80;;;6.88;;
40459;SDS011;26164;51.138;16.952;2023-08-20T08:13:27;9.43;;;6.60;;
40459;SDS011;26164;51.138;16.952;2023-08-20T08:15:54;10.55;;;6.60;;
40459;SDS011;26164;51.138;16.952;2023-08-20T08:18:19;8.90;;;6.07;;
40459;SDS011;26164;51.138;16.952;2023-08-20T08:20:45;9.10;;;6.25;;
40459;SDS011;26164;51.138;16.952;2023-08-20T08:23:11;9.55;;;6.30;;
40459;SDS011;26164;51.138;16.952;2023-08-20T08:25:37;6.93;;;5.80;;
40459;SDS011;26164;51.138;16.952;2023-08-20T08:28:03;7.50;;;5.82;;
40459;SDS011;26164;51.138;16.952;2023-08-20T08:30:29;7.65;;;5.88;;
40459;SDS011;26164;51.138;16.952;2023-08-20T08:32:55;7.18;;;5.88;;
40459;SDS011;26164;51.138;16.952;2023-08-20T08:35:20;7.30;;;6.07;;
40459;SDS011;26164;51.138;16.952;2023-08-20T08:37:47;11.63;;;6.03;;
40459;SDS011;26164;51.138;16.952;2023-08-20T08:40:12;9.73;;;5.93;;
40459;SDS011;26164;51.138;16.952;2023-08-20T08:42:38;9.30;;;5.75;;
40459;SDS011;26164;51.138;16.952;2023-08-20T08:45:05;7.47;;;5.97;;
40459;SDS011;26164;51.138;16.952;2023-08-20T08:47:31;8.70;;;6.00;;
40459;SDS011;26164;51.138;16.952;2023-08-20T08:49:57;7.15;;;5.97;;
40459;SDS011;26164;51.138;16.952;2023-08-20T08:52:24;8.45;;;6.28;;
40459;SDS011;26164;51.138;16.952;2023-08-20T08:54:50;10.48;;;5.72;;
40459;SDS011;26164;51.138;16.952;2023-08-20T08:57:16;6.88;;;5.60;;
40459;SDS011;26164;51.138;16.952;2023-08-20T08:59:42;9.45;;;5.53;;
40459;SDS011;26164;51.138;16.952;2023-08-20T09:02:10;7.65;;;5.20;;
40459;SDS011;26164;51.138;16.952;2023-08-20T09:04:40;8.40;;;5.85;;
40459;SDS011;26164;51.138;16.952;2023-08-20T09:07:07;9.93;;;5.00;;
40459;SDS011;26164;51.138;16.952;2023-08-20T09:09:36;6.25;;;5.10;;
40459;SDS011;26164;51.138;16.952;2023-08-20T09:12:12;7.47;;;5.10;;
40459;SDS011;26164;51.138;16.952;2023-08-20T09:14:38;6.45;;;4.78;;
40459;SDS011;26164;51.138;16.952;2023-08-20T09:17:04;6.63;;;5.13;;
40459;SDS011;26164;51.138;16.952;2023-08-20T09:19:35;7.35;;;5.13;;
40459;SDS011;26164;51.138;16.952;2023-08-20T09:22:02;7.80;;;4.72;;
40459;SDS011;26164;51.138;16.952;2023-08-20T09:24:34;6.25;;;5.20;;
40459;SDS011;26164;51.138;16.952;2023-08-20T09:27:03;7.82;;;5.40;;
40459;SDS011;26164;51.138;16.952;2023-08-20T09:29:33;6.78;;;5.07;;
40459;SDS011;26164;51.138;16.952;2023-08-20T09:32:01;6.38;;;5.10;;
40459;SDS011;26164;51.138;16.952;2023-08-20T09:34:37;7.63;;;5.03;;
40459;SDS011;26164;51.138;16.952;2023-08-20T09:37:09;7.65;;;5.65;;
40459;SDS011;26164;51.138;16.952;2023-08-20T09:39:35;7.22;;;5.43;;
40459;SDS011;26164;51.138;16.952;2023-08-20T09:42:03;7.97;;;5.63;;
40459;SDS011;26164;51.138;16.952;2023-08-20T09:44:31;8.75;;;6.20;;
40459;SDS011;26164;51.138;16.952;2023-08-20T09:46:58;7.65;;;5.68;;
40459;SDS011;26164;51.138;16.952;2023-08-20T09:49:24;6.97;;;6.13;;
40459;SDS011;26164;51.138;16.952;2023-08-20T09:51:53;7.50;;;5.53;;
40459;SDS011;26164;51.138;16.952;2023-08-20T09:54:28;8.10;;;5.90;;
40459;SDS011;26164;51.138;16.952;2023-08-20T09:56:58;8.13;;;5.85;;
40459;SDS011;26164;51.138;16.952;2023-08-20T09:59:26;10.23;;;5.47;;
40459;SDS011;26164;51.138;16.952;2023-08-20T10:01:55;8.65;;;5.68;;
40459;SDS011;26164;51.138;16.952;2023-08-20T10:04:22;9.25;;;5.85;;
40459;SDS011;26164;51.138;16.952;2023-08-20T10:06:49;6.78;;;5.50;;
40459;SDS011;26164;51.138;16.952;2023-08-20T10:09:17;10.23;;;6.03;;
40459;SDS011;26164;51.138;16.952;2023-08-20T10:11:44;10.82;;;5.43;;
40459;SDS011;26164;51.138;16.952;2023-08-20T10:14:11;8.00;;;5.82;;
40459;SDS011;26164;51.138;16.952;2023-08-20T10:16:37;7.57;;;5.40;;
40459;SDS011;26164;51.138;16.952;2023-08-20T10:19:06;7.28;;;6.18;;
40459;SDS011;26164;51.138;16.952;2023-08-20T10:21:33;7.47;;;6.00;;
40459;SDS011;26164;51.138;16.952;2023-08-20T10:24:05;8.80;;;6.22;;
40459;SDS011;26164;51.138;16.952;2023-08-20T10:26:34;8.85;;;5.90;;
40459;SDS011;26164;51.138;16.952;2023-08-20T10:31:48;10.13;;;5.68;;
40459;SDS011;26164;51.138;16.952;2023-08-20T10:34:21;9.48;;;5.47;;
40459;SDS011;26164;51.138;16.952;2023-08-20T10:36:58;8.20;;;5.70;;
40459;SDS011;26164;51.138;16.952;2023-08-20T10:39:26;7.90;;;6.20;;
40459;SDS011;26164;51.138;16.952;2023-08-20T10:45:01;7.70;;;5.90;;
40459;SDS011;26164;51.138;16.952;2023-08-20T10:50:02;7.25;;;5.55;;
40459;SDS011;26164;51.138;16.952;2023-08-20T10:52:30;7.97;;;5.28;;
40459;SDS011;26164;51.138;16.952;2023-08-20T10:54:56;8.57;;;5.60;;
40459;SDS011;26164;51.138;16.952;2023-08-20T10:57:22;9.00;;;5.65;;
40459;SDS011;26164;51.138;16.952;2023-08-20T10:59:57;6.80;;;5.65;;
40459;SDS011;26164;51.138;16.952;2023-08-20T11:02:26;6.82;;;5.75;;
40459;SDS011;26164;51.138;16.952;2023-08-20T11:04:53;6.90;;;5.32;;
40459;SDS011;26164;51.138;16.952;2023-08-20T11:07:19;10.82;;;6.13;;
40459;SDS011;26164;51.138;16.952;2023-08-20T11:09:46;7.00;;;5.97;;
40459;SDS011;26164;51.138;16.952;2023-08-20T11:12:15;9.80;;;6.50;;
40459;SDS011;26164;51.138;16.952;2023-08-20T11:14:43;12.05;;;7.80;;
40459;SDS011;26164;51.138;16.952;2023-08-20T11:17:14;10.88;;;6.22;;
40459;SDS011;26164;51.138;16.952;2023-08-20T11:19:41;11.32;;;6.25;;
40459;SDS011;26164;51.138;16.952;2023-08-20T11:22:08;7.78;;;6.00;;
40459;SDS011;26164;51.138;16.952;2023-08-20T11:24:34;9.10;;;6.22;;
40459;SDS011;26164;51.138;16.952;2023-08-20T11:27:01;9.10;;;6.40;;
40459;SDS011;26164;51.138;16.952;2023-08-20T11:29:27;8.95;;;6.28;;
40459;SDS011;26164;51.138;16.952;2023-08-20T11:31:54;9.98;;;6.00;;
40459;SDS011;26164;51.138;16.952;2023-08-20T11:34:21;8.55;;;6.43;;
40459;SDS011;26164;51.138;16.952;2023-08-20T11:36:47;11.18;;;5.70;;
40459;SDS011;26164;51.138;16.952;2023-08-20T11:39:13;9.88;;;6.40;;
40459;SDS011;26164;51.138;16.952;2023-08-20T11:41:40;10.40;;;6.00;;
40459;SDS011;26164;51.138;16.952;2023-08-20T11:44:10;8.70;;;5.82;;
40459;SDS011;26164;51.138;16.952;2023-08-20T11:46:41;8.07;;;5.90;;
40459;SDS011;26164;51.138;16.952;2023-08-20T11:49:10;6.57;;;5.88;;
40459;SDS011;26164;51.138;16.952;2023-08-20T11:51:41;8.15;;;6.10;;
40459;SDS011;26164;51.138;16.952;2023-08-20T11:54:07;12.48;;;6.20;;
40459;SDS011;26164;51.138;16.952;2023-08-20T11:56:34;8.82;;;5.85;;
40459;SDS011;26164;51.138;16.952;2023-08-20T11:59:00;8.57;;;5.82;;
40459;SDS011;26164;51.138;16.952;2023-08-20T12:01:30;11.10;;;5.85;;
40459;SDS011;26164;51.138;16.952;2023-08-20T12:04:03;10.00;;;5.57;;
40459;SDS011;26164;51.138;16.952;2023-08-20T12:06:31;9.82;;;6.05;;
40459;SDS011;26164;51.138;16.952;2023-08-20T12:08:58;7.82;;;5.60;;
40459;SDS011;26164;51.138;16.952;2023-08-20T12:11:27;7.40;;;5.07;;
40459;SDS011;26164;51.138;16.952;2023-08-20T12:13:53;9.00;;;5.50;;
40459;SDS011;26164;51.138;16.952;2023-08-20T12:16:21;9.95;;;5.43;;
40459;SDS011;26164;51.138;16.952;2023-08-20T12:18:50;7.32;;;5.60;;
40459;SDS011;26164;51.138;16.952;2023-08-20T12:21:17;7.88;;;5.60;;
40459;SDS011;26164;51.138;16.952;2023-08-20T12:23:43;7.32;;;5.53;;
40459;SDS011;26164;51.138;16.952;2023-08-20T12:26:16;11.05;;;5.32;;
40459;SDS011;26164;51.138;16.952;2023-08-20T12:28:42;10.30;;;5.15;;
40459;SDS011;26164;51.138;16.952;2023-08-20T12:31:10;7.35;;;4.55;;
40459;SDS011;26164;51.138;16.952;2023-08-20T12:33:36;9.73;;;4.63;;
40459;SDS011;26164;51.138;16.952;2023-08-20T12:36:02;5.95;;;4.60;;
40459;SDS011;26164;51.138;16.952;2023-08-20T12:38:28;6.43;;;4.57;;
40459;SDS011;26164;51.138;16.952;2023-08-20T12:40:59;8.98;;;4.93;;
40459;SDS011;26164;51.138;16.952;2023-08-20T12:43:25;10.60;;;4.93;;
40459;SDS011;26164;51.138;16.952;2023-08-20T12:45:52;8.40;;;4.78;;
40459;SDS011;26164;51.138;16.952;2023-08-20T12:48:20;4.50;;;3.65;;
40459;SDS011;26164;51.138;16.952;2023-08-20T12:50:48;6.20;;;4.00;;
40459;SDS011;26164;51.138;16.952;2023-08-20T12:53:13;5.32;;;4.40;;
40459;SDS011;26164;51.138;16.952;2023-08-20T12:55:39;4.70;;;3.75;;
40459;SDS011;26164;51.138;16.952;2023-08-20T12:58:05;7.28;;;3.88;;
40459;SDS011;26164;51.138;16.952;2023-08-20T13:00:31;5.35;;;4.43;;
40459;SDS011;26164;51.138;16.952;2023-08-20T13:03:02;7.00;;;4.20;;
40459;SDS011;26164;51.138;16.952;2023-08-20T13:05:31;7.00;;;3.88;;
40459;SDS011;26164;51.138;16.952;2023-08-20T13:07:57;5.63;;;3.97;;
40459;SDS011;26164;51.138;16.952;2023-08-20T13:10:23;7.60;;;4.15;;
40459;SDS011;26164;51.138;16.952;2023-08-20T13:12:52;6.75;;;3.70;;
40459;SDS011;26164;51.138;16.952;2023-08-20T13:15:20;5.82;;;3.65;;
40459;SDS011;26164;51.138;16.952;2023-08-20T13:17:50;5.10;;;3.58;;
40459;SDS011;26164;51.138;16.952;2023-08-20T13:20:19;5.25;;;3.90;;
40459;SDS011;26164;51.138;16.952;2023-08-20T13:22:50;5.65;;;3.92;;
40459;SDS011;26164;51.138;16.952;2023-08-20T13:25:19;5.35;;;3.60;;
40459;SDS011;26164;51.138;16.952;2023-08-20T13:27:48;4.50;;;3.53;;
40459;SDS011;26164;51.138;16.952;2023-08-20T13:30:15;6.47;;;3.45;;
40459;SDS011;26164;51.138;16.952;2023-08-20T13:32:42;5.13;;;3.83;;
40459;SDS011;26164;51.138;16.952;2023-08-20T13:35:10;5.47;;;3.65;;
40459;SDS011;26164;51.138;16.952;2023-08-20T13:37:42;4.75;;;3.50;;
40459;SDS011;26164;51.138;16.952;2023-08-20T13:40:12;5.15;;;3.83;;
40459;SDS011;26164;51.138;16.952;2023-08-20T13:42:40;5.68;;;3.78;;
40459;SDS011;26164;51.138;16.952;2023-08-20T13:45:06;3.88;;;3.38;;
40459;SDS011;26164;51.138;16.952;2023-08-20T13:47:32;7.15;;;2.90;;
40459;SDS011;26164;51.138;16.952;2023-08-20T13:50:00;5.07;;;3.50;;
40459;SDS011;26164;51.138;16.952;2023-08-20T13:52:25;4.22;;;3.50;;
40459;SDS011;26164;51.138;16.952;2023-08-20T13:54:52;7.20;;;3.70;;
40459;SDS011;26164;51.138;16.952;2023-08-20T13:57:19;4.13;;;3.30;;
40459;SDS011;26164;51.138;16.952;2023-08-20T13:59:49;4.15;;;3.28;;
40459;SDS011;26164;51.138;16.952;2023-08-20T14:02:14;10.60;;;3.92;;
40459;SDS011;26164;51.138;16.952;2023-08-20T14:04:40;6.72;;;3.55;;
40459;SDS011;26164;51.138;16.952;2023-08-20T14:07:06;3.65;;;3.10;;
40459;SDS011;26164;51.138;16.952;2023-08-20T14:09:36;6.80;;;3.25;;
40459;SDS011;26164;51.138;16.952;2023-08-20T14:12:03;4.70;;;3.10;;
40459;SDS011;26164;51.138;16.952;2023-08-20T14:14:29;7.00;;;3.10;;
40459;SDS011;26164;51.138;16.952;2023-08-20T14:16:55;4.35;;;3.00;;
40459;SDS011;26164;51.138;16.952;2023-08-20T14:19:21;9.13;;;3.50;;
40459;SDS011;26164;51.138;16.952;2023-08-20T14:21:48;6.85;;;3.90;;
40459;SDS011;26164;51.138;16.952;2023-08-20T14:24:21;6.15;;;3.67;;
40459;SDS011;26164;51.138;16.952;2023-08-20T14:26:47;5.65;;;3.95;;
40459;SDS011;26164;51.138;16.952;2023-08-20T14:29:13;6.03;;;4.00;;
40459;SDS011;26164;51.138;16.952;2023-08-20T14:31:43;6.82;;;3.63;;
40459;SDS011;26164;51.138;16.952;2023-08-20T14:34:10;16.45;;;11.48;;